sensor_id;sensor_type;location;lat;lon;timestamp;P1;durP1;ratioP1;P2;durP2;ratioP2
57651;SDS011;43480;53.116;6.734;2023-11-25T00:00:49;12.88;;;1.92;;
57651;SDS011;43480;53.116;6.734;2023-11-25T00:03:16;13.32;;;1.73;;
57651;SDS011;43480;53.116;6.734;2023-11-25T00:05:42;9.75;;;2.08;;
57651;SDS011;43480;53.116;6.734;2023-11-25T00:08:08;7.40;;;1.85;;
57651;SDS011;43480;53.116;6.734;2023-11-25T00:10:34;14.82;;;3.15;;
57651;SDS011;43480;53.116;6.734;2023-11-25T00:13:01;7.70;;;1.58;;
57651;SDS011;43480;53.116;6.734;2023-11-25T00:15:27;8.65;;;1.70;;
57651;SDS011;43480;53.116;6.734;2023-11-25T00:17:53;6.63;;;1.75;;
57651;SDS011;43480;53.116;6.734;2023-11-25T00:20:20;11.32;;;2.83;;
57651;SDS011;43480;53.116;6.734;2023-11-25T00:22:46;12.77;;;2.65;;
57651;SDS011;43480;53.116;6.734;2023-11-25T00:25:12;7.82;;;1.77;;
57651;SDS011;43480;53.116;6.734;2023-11-25T00:27:38;7.68;;;1.50;;
57651;SDS011;43480;53.116;6.734;2023-11-25T00:30:05;13.32;;;2.20;;
57651;SDS011;43480;53.116;6.734;2023-11-25T00:32:32;9.48;;;1.27;;
57651;SDS011;43480;53.116;6.734;2023-11-25T00:35:04;10.95;;;1.98;;
57651;SDS011;43480;53.116;6.734;2023-11-25T00:37:36;8.18;;;1.40;;
57651;SDS011;43480;53.116;6.734;2023-11-25T00:40:02;15.15;;;2.85;;
57651;SDS011;43480;53.116;6.734;2023-11-25T00:42:35;15.20;;;1.83;;
57651;SDS011;43480;53.116;6.734;2023-11-25T00:45:01;9.00;;;1.70;;
57651;SDS011;43480;53.116;6.734;2023-11-25T00:47:29;10.73;;;2.22;;
57651;SDS011;43480;53.116;6.734;2023-11-25T00:49:56;15.23;;;2.55;;
57651;SDS011;43480;53.116;6.734;2023-11-25T00:52:21;7.78;;;1.90;;
57651;SDS011;43480;53.116;6.734;2023-11-25T00:54:47;12.77;;;3.70;;
57651;SDS011;43480;53.116;6.734;2023-11-25T00:57:14;12.60;;;2.33;;
57651;SDS011;43480;53.116;6.734;2023-11-25T00:59:40;15.45;;;3.38;;
57651;SDS011;43480;53.116;6.734;2023-11-25T01:02:05;17.75;;;2.80;;
57651;SDS011;43480;53.116;6.734;2023-11-25T01:04:31;17.33;;;2.50;;
57651;SDS011;43480;53.116;6.734;2023-11-25T01:06:57;14.65;;;2.10;;
57651;SDS011;43480;53.116;6.734;2023-11-25T01:09:23;8.70;;;1.63;;
57651;SDS011;43480;53.116;6.734;2023-11-25T01:11:51;14.75;;;2.50;;
57651;SDS011;43480;53.116;6.734;2023-11-25T01:14:19;10.48;;;2.10;;
57651;SDS011;43480;53.116;6.734;2023-11-25T01:16:45;10.95;;;2.92;;
57651;SDS011;43480;53.116;6.734;2023-11-25T01:19:10;8.35;;;2.15;;
57651;SDS011;43480;53.116;6.734;2023-11-25T01:21:36;11.82;;;2.33;;
57651;SDS011;43480;53.116;6.734;2023-11-25T01:24:02;9.40;;;2.80;;
57651;SDS011;43480;53.116;6.734;2023-11-25T01:26:28;8.85;;;1.70;;
57651;SDS011;43480;53.116;6.734;2023-11-25T01:28:53;14.77;;;2.28;;
57651;SDS011;43480;53.116;6.734;2023-11-25T01:31:19;6.50;;;1.80;;
57651;SDS011;43480;53.116;6.734;2023-11-25T01:33:44;15.65;;;2.28;;
57651;SDS011;43480;53.116;6.734;2023-11-25T01:36:10;13.02;;;2.80;;
57651;SDS011;43480;53.116;6.734;2023-11-25T01:38:36;11.98;;;2.03;;
57651;SDS011;43480;53.116;6.734;2023-11-25T01:41:03;12.13;;;3.63;;
57651;SDS011;43480;53.116;6.734;2023-11-25T01:43:29;14.82;;;3.50;;
57651;SDS011;43480;53.116;6.734;2023-11-25T01:45:55;9.32;;;2.45;;
57651;SDS011;43480;53.116;6.734;2023-11-25T01:48:22;12.50;;;2.97;;
57651;SDS011;43480;53.116;6.734;2023-11-25T01:50:49;16.25;;;3.78;;
57651;SDS011;43480;53.116;6.734;2023-11-25T01:53:15;11.48;;;3.08;;
57651;SDS011;43480;53.116;6.734;2023-11-25T01:55:44;14.68;;;3.38;;
57651;SDS011;43480;53.116;6.734;2023-11-25T01:58:12;15.57;;;3.10;;
57651;SDS011;43480;53.116;6.734;2023-11-25T02:00:42;11.50;;;2.00;;
57651;SDS011;43480;53.116;6.734;2023-11-25T02:03:09;21.80;;;4.38;;
57651;SDS011;43480;53.116;6.734;2023-11-25T02:05:36;10.23;;;2.33;;
57651;SDS011;43480;53.116;6.734;2023-11-25T02:08:03;12.13;;;3.25;;
57651;SDS011;43480;53.116;6.734;2023-11-25T02:10:30;8.00;;;2.65;;
57651;SDS011;43480;53.116;6.734;2023-11-25T02:12:55;13.82;;;4.18;;
57651;SDS011;43480;53.116;6.734;2023-11-25T02:15:21;16.33;;;3.63;;
57651;SDS011;43480;53.116;6.734;2023-11-25T02:17:47;11.60;;;2.22;;
57651;SDS011;43480;53.116;6.734;2023-11-25T02:20:13;13.93;;;2.55;;
57651;SDS011;43480;53.116;6.734;2023-11-25T02:22:46;18.15;;;3.50;;
57651;SDS011;43480;53.116;6.734;2023-11-25T02:25:17;11.63;;;2.42;;
57651;SDS011;43480;53.116;6.734;2023-11-25T02:27:42;16.42;;;3.55;;
57651;SDS011;43480;53.116;6.734;2023-11-25T02:30:08;15.95;;;2.25;;
57651;SDS011;43480;53.116;6.734;2023-11-25T02:32:34;9.05;;;2.15;;
57651;SDS011;43480;53.116;6.734;2023-11-25T02:35:00;15.95;;;3.05;;
57651;SDS011;43480;53.116;6.734;2023-11-25T02:37:26;18.75;;;3.15;;
57651;SDS011;43480;53.116;6.734;2023-11-25T02:39:51;18.63;;;3.08;;
57651;SDS011;43480;53.116;6.734;2023-11-25T02:42:17;13.10;;;2.65;;
57651;SDS011;43480;53.116;6.734;2023-11-25T02:44:43;11.32;;;3.30;;
57651;SDS011;43480;53.116;6.734;2023-11-25T02:47:08;12.07;;;2.25;;
57651;SDS011;43480;53.116;6.734;2023-11-25T02:49:34;8.55;;;2.35;;
57651;SDS011;43480;53.116;6.734;2023-11-25T02:52:00;12.20;;;2.47;;
57651;SDS011;43480;53.116;6.734;2023-11-25T02:54:26;13.93;;;3.15;;
57651;SDS011;43480;53.116;6.734;2023-11-25T02:56:52;14.65;;;2.50;;
57651;SDS011;43480;53.116;6.734;2023-11-25T02:59:17;8.07;;;2.40;;
57651;SDS011;43480;53.116;6.734;2023-11-25T03:01:43;12.50;;;3.30;;
57651;SDS011;43480;53.116;6.734;2023-11-25T03:04:20;13.65;;;2.13;;
57651;SDS011;43480;53.116;6.734;2023-11-25T03:06:56;12.85;;;2.45;;
57651;SDS011;43480;53.116;6.734;2023-11-25T03:09:27;18.40;;;2.70;;
57651;SDS011;43480;53.116;6.734;2023-11-25T03:11:53;13.25;;;2.72;;
57651;SDS011;43480;53.116;6.734;2023-11-25T03:14:18;15.00;;;2.78;;
57651;SDS011;43480;53.116;6.734;2023-11-25T03:16:45;11.65;;;2.38;;
57651;SDS011;43480;53.116;6.734;2023-11-25T03:19:11;11.55;;;2.10;;
57651;SDS011;43480;53.116;6.734;2023-11-25T03:21:38;12.65;;;2.58;;
57651;SDS011;43480;53.116;6.734;2023-11-25T03:24:04;13.88;;;2.72;;
57651;SDS011;43480;53.116;6.734;2023-11-25T03:26:32;14.95;;;2.75;;
57651;SDS011;43480;53.116;6.734;2023-11-25T03:28:58;12.50;;;2.22;;
57651;SDS011;43480;53.116;6.734;2023-11-25T03:31:24;12.05;;;1.67;;
57651;SDS011;43480;53.116;6.734;2023-11-25T03:33:50;10.27;;;2.15;;
57651;SDS011;43480;53.116;6.734;2023-11-25T03:36:15;15.75;;;2.72;;
57651;SDS011;43480;53.116;6.734;2023-11-25T03:38:41;14.10;;;2.38;;
57651;SDS011;43480;53.116;6.734;2023-11-25T03:41:08;16.38;;;2.35;;
57651;SDS011;43480;53.116;6.734;2023-11-25T03:43:34;9.50;;;2.05;;
57651;SDS011;43480;53.116;6.734;2023-11-25T03:46:00;14.02;;;4.20;;
57651;SDS011;43480;53.116;6.734;2023-11-25T03:48:25;13.80;;;3.33;;
57651;SDS011;43480;53.116;6.734;2023-11-25T03:50:51;14.65;;;2.22;;
57651;SDS011;43480;53.116;6.734;2023-11-25T03:53:17;15.15;;;2.67;;
57651;SDS011;43480;53.116;6.734;2023-11-25T03:55:43;9.68;;;2.25;;
57651;SDS011;43480;53.116;6.734;2023-11-25T03:58:09;11.75;;;2.72;;
57651;SDS011;43480;53.116;6.734;2023-11-25T04:00:36;10.77;;;2.13;;
57651;SDS011;43480;53.116;6.734;2023-11-25T04:03:02;16.35;;;2.33;;
57651;SDS011;43480;53.116;6.734;2023-11-25T04:05:27;16.15;;;2.67;;
57651;SDS011;43480;53.116;6.734;2023-11-25T04:07:53;12.20;;;2.40;;
57651;SDS011;43480;53.116;6.734;2023-11-25T04:10:19;11.85;;;2.92;;
57651;SDS011;43480;53.116;6.734;2023-11-25T04:12:45;16.20;;;2.38;;
57651;SDS011;43480;53.116;6.734;2023-11-25T04:15:13;14.00;;;2.58;;
57651;SDS011;43480;53.116;6.734;2023-11-25T04:17:40;13.57;;;3.20;;
57651;SDS011;43480;53.116;6.734;2023-11-25T04:20:07;11.82;;;1.90;;
57651;SDS011;43480;53.116;6.734;2023-11-25T04:22:46;19.25;;;3.35;;
57651;SDS011;43480;53.116;6.734;2023-11-25T04:25:13;9.23;;;3.13;;
57651;SDS011;43480;53.116;6.734;2023-11-25T04:27:45;14.00;;;2.40;;
57651;SDS011;43480;53.116;6.734;2023-11-25T04:30:15;12.57;;;3.30;;
57651;SDS011;43480;53.116;6.734;2023-11-25T04:32:42;8.95;;;1.98;;
57651;SDS011;43480;53.116;6.734;2023-11-25T04:35:09;7.53;;;1.15;;
57651;SDS011;43480;53.116;6.734;2023-11-25T04:37:35;8.00;;;1.50;;
57651;SDS011;43480;53.116;6.734;2023-11-25T04:40:02;8.93;;;2.72;;
57651;SDS011;43480;53.116;6.734;2023-11-25T04:42:30;7.25;;;2.17;;
57651;SDS011;43480;53.116;6.734;2023-11-25T04:44:56;7.30;;;1.63;;
57651;SDS011;43480;53.116;6.734;2023-11-25T04:47:24;8.63;;;2.20;;
57651;SDS011;43480;53.116;6.734;2023-11-25T04:49:51;12.05;;;1.50;;
57651;SDS011;43480;53.116;6.734;2023-11-25T04:52:17;16.45;;;3.08;;
57651;SDS011;43480;53.116;6.734;2023-11-25T04:54:43;8.50;;;1.83;;
57651;SDS011;43480;53.116;6.734;2023-11-25T04:57:09;9.25;;;1.63;;
57651;SDS011;43480;53.116;6.734;2023-11-25T04:59:35;11.63;;;2.03;;
57651;SDS011;43480;53.116;6.734;2023-11-25T05:02:01;10.10;;;1.35;;
57651;SDS011;43480;53.116;6.734;2023-11-25T05:04:28;13.18;;;1.55;;
57651;SDS011;43480;53.116;6.734;2023-11-25T05:06:54;6.57;;;1.27;;
57651;SDS011;43480;53.116;6.734;2023-11-25T05:09:20;9.77;;;1.27;;
57651;SDS011;43480;53.116;6.734;2023-11-25T05:11:45;11.70;;;2.03;;
57651;SDS011;43480;53.116;6.734;2023-11-25T05:14:11;12.93;;;3.90;;
57651;SDS011;43480;53.116;6.734;2023-11-25T05:16:37;8.38;;;1.45;;
57651;SDS011;43480;53.116;6.734;2023-11-25T05:19:03;10.43;;;1.60;;
57651;SDS011;43480;53.116;6.734;2023-11-25T05:21:29;13.20;;;1.58;;
57651;SDS011;43480;53.116;6.734;2023-11-25T05:23:55;9.13;;;1.70;;
57651;SDS011;43480;53.116;6.734;2023-11-25T05:26:21;6.47;;;1.23;;
57651;SDS011;43480;53.116;6.734;2023-11-25T05:28:50;3.75;;;1.00;;
57651;SDS011;43480;53.116;6.734;2023-11-25T05:31:16;6.45;;;1.27;;
57651;SDS011;43480;53.116;6.734;2023-11-25T05:33:42;5.85;;;1.10;;
57651;SDS011;43480;53.116;6.734;2023-11-25T05:36:08;5.55;;;0.95;;
57651;SDS011;43480;53.116;6.734;2023-11-25T05:38:34;5.13;;;1.60;;
57651;SDS011;43480;53.116;6.734;2023-11-25T05:41:00;9.00;;;1.98;;
57651;SDS011;43480;53.116;6.734;2023-11-25T05:43:29;4.15;;;0.60;;
57651;SDS011;43480;53.116;6.734;2023-11-25T05:45:55;3.72;;;1.30;;
57651;SDS011;43480;53.116;6.734;2023-11-25T05:48:23;5.30;;;0.77;;
57651;SDS011;43480;53.116;6.734;2023-11-25T05:50:50;4.57;;;1.17;;
57651;SDS011;43480;53.116;6.734;2023-11-25T05:53:16;2.60;;;0.52;;
57651;SDS011;43480;53.116;6.734;2023-11-25T05:55:41;1.65;;;0.60;;
57651;SDS011;43480;53.116;6.734;2023-11-25T05:58:07;2.28;;;0.52;;
57651;SDS011;43480;53.116;6.734;2023-11-25T06:00:33;2.65;;;0.50;;
57651;SDS011;43480;53.116;6.734;2023-11-25T06:02:58;6.22;;;0.75;;
57651;SDS011;43480;53.116;6.734;2023-11-25T06:05:26;7.57;;;1.33;;
57651;SDS011;43480;53.116;6.734;2023-11-25T06:07:53;5.85;;;1.15;;
57651;SDS011;43480;53.116;6.734;2023-11-25T06:10:19;5.25;;;0.88;;
57651;SDS011;43480;53.116;6.734;2023-11-25T06:12:44;7.32;;;1.17;;
57651;SDS011;43480;53.116;6.734;2023-11-25T06:15:10;4.60;;;0.80;;
57651;SDS011;43480;53.116;6.734;2023-11-25T06:17:36;5.57;;;1.00;;
57651;SDS011;43480;53.116;6.734;2023-11-25T06:20:02;4.55;;;0.98;;
57651;SDS011;43480;53.116;6.734;2023-11-25T06:22:29;3.90;;;1.33;;
57651;SDS011;43480;53.116;6.734;2023-11-25T06:24:54;8.68;;;2.03;;
57651;SDS011;43480;53.116;6.734;2023-11-25T06:27:23;12.48;;;2.22;;
57651;SDS011;43480;53.116;6.734;2023-11-25T06:29:49;12.45;;;1.48;;
57651;SDS011;43480;53.116;6.734;2023-11-25T06:32:15;15.20;;;2.20;;
57651;SDS011;43480;53.116;6.734;2023-11-25T06:34:41;9.63;;;2.13;;
57651;SDS011;43480;53.116;6.734;2023-11-25T06:37:06;9.23;;;2.10;;
57651;SDS011;43480;53.116;6.734;2023-11-25T06:39:32;8.00;;;1.50;;
57651;SDS011;43480;53.116;6.734;2023-11-25T06:41:59;10.65;;;2.13;;
57651;SDS011;43480;53.116;6.734;2023-11-25T06:44:25;15.07;;;1.92;;
57651;SDS011;43480;53.116;6.734;2023-11-25T06:46:52;14.02;;;1.95;;
57651;SDS011;43480;53.116;6.734;2023-11-25T06:49:17;14.68;;;2.30;;
57651;SDS011;43480;53.116;6.734;2023-11-25T06:51:44;15.73;;;1.70;;
57651;SDS011;43480;53.116;6.734;2023-11-25T06:54:10;10.18;;;1.70;;
57651;SDS011;43480;53.116;6.734;2023-11-25T06:56:36;11.95;;;2.60;;
57651;SDS011;43480;53.116;6.734;2023-11-25T06:59:03;12.77;;;1.40;;
57651;SDS011;43480;53.116;6.734;2023-11-25T07:01:31;13.45;;;2.50;;
57651;SDS011;43480;53.116;6.734;2023-11-25T07:03:57;15.02;;;3.50;;
57651;SDS011;43480;53.116;6.734;2023-11-25T07:06:23;9.85;;;1.77;;
57651;SDS011;43480;53.116;6.734;2023-11-25T07:08:49;8.50;;;1.55;;
57651;SDS011;43480;53.116;6.734;2023-11-25T07:11:14;8.77;;;2.13;;
57651;SDS011;43480;53.116;6.734;2023-11-25T07:13:41;16.50;;;3.70;;
57651;SDS011;43480;53.116;6.734;2023-11-25T07:16:07;10.32;;;2.15;;
57651;SDS011;43480;53.116;6.734;2023-11-25T07:18:33;11.65;;;1.50;;
57651;SDS011;43480;53.116;6.734;2023-11-25T07:21:00;8.57;;;1.27;;
57651;SDS011;43480;53.116;6.734;2023-11-25T07:23:26;7.25;;;1.73;;
57651;SDS011;43480;53.116;6.734;2023-11-25T07:25:52;7.68;;;1.38;;
57651;SDS011;43480;53.116;6.734;2023-11-25T07:28:21;9.68;;;1.50;;
57651;SDS011;43480;53.116;6.734;2023-11-25T07:30:47;12.98;;;1.65;;
57651;SDS011;43480;53.116;6.734;2023-11-25T07:33:14;8.93;;;2.30;;
57651;SDS011;43480;53.116;6.734;2023-11-25T07:35:40;11.88;;;1.30;;
57651;SDS011;43480;53.116;6.734;2023-11-25T07:38:06;7.53;;;1.38;;
57651;SDS011;43480;53.116;6.734;2023-11-25T07:40:32;9.88;;;1.40;;
57651;SDS011;43480;53.116;6.734;2023-11-25T07:42:59;11.27;;;2.53;;
57651;SDS011;43480;53.116;6.734;2023-11-25T07:45:25;8.77;;;2.33;;
57651;SDS011;43480;53.116;6.734;2023-11-25T07:47:51;11.15;;;2.53;;
57651;SDS011;43480;53.116;6.734;2023-11-25T07:50:18;11.68;;;1.75;;
57651;SDS011;43480;53.116;6.734;2023-11-25T07:52:44;5.88;;;1.75;;
57651;SDS011;43480;53.116;6.734;2023-11-25T07:55:10;9.73;;;1.70;;
57651;SDS011;43480;53.116;6.734;2023-11-25T07:57:36;14.45;;;2.63;;
57651;SDS011;43480;53.116;6.734;2023-11-25T08:00:03;7.10;;;2.40;;
57651;SDS011;43480;53.116;6.734;2023-11-25T08:02:32;11.98;;;2.10;;
57651;SDS011;43480;53.116;6.734;2023-11-25T08:04:58;10.30;;;1.63;;
57651;SDS011;43480;53.116;6.734;2023-11-25T08:07:23;12.60;;;2.83;;
57651;SDS011;43480;53.116;6.734;2023-11-25T08:09:49;11.18;;;2.47;;
57651;SDS011;43480;53.116;6.734;2023-11-25T08:12:15;8.95;;;1.30;;
57651;SDS011;43480;53.116;6.734;2023-11-25T08:14:40;9.63;;;1.60;;
57651;SDS011;43480;53.116;6.734;2023-11-25T08:17:06;3.67;;;1.05;;
57651;SDS011;43480;53.116;6.734;2023-11-25T08:19:32;9.85;;;2.20;;
57651;SDS011;43480;53.116;6.734;2023-11-25T08:21:57;10.25;;;1.13;;
57651;SDS011;43480;53.116;6.734;2023-11-25T08:24:23;12.15;;;2.45;;
57651;SDS011;43480;53.116;6.734;2023-11-25T08:26:49;7.43;;;1.45;;
57651;SDS011;43480;53.116;6.734;2023-11-25T08:29:15;10.38;;;2.28;;
57651;SDS011;43480;53.116;6.734;2023-11-25T08:31:42;11.45;;;1.77;;
57651;SDS011;43480;53.116;6.734;2023-11-25T08:34:08;18.90;;;2.85;;
57651;SDS011;43480;53.116;6.734;2023-11-25T08:36:40;12.45;;;2.47;;
57651;SDS011;43480;53.116;6.734;2023-11-25T08:39:21;13.05;;;1.70;;
57651;SDS011;43480;53.116;6.734;2023-11-25T08:41:51;9.25;;;1.42;;
57651;SDS011;43480;53.116;6.734;2023-11-25T08:44:18;5.00;;;1.30;;
57651;SDS011;43480;53.116;6.734;2023-11-25T08:46:44;8.18;;;1.23;;
57651;SDS011;43480;53.116;6.734;2023-11-25T08:49:11;8.80;;;1.40;;
57651;SDS011;43480;53.116;6.734;2023-11-25T08:51:43;8.48;;;1.65;;
57651;SDS011;43480;53.116;6.734;2023-11-25T08:54:15;8.15;;;1.10;;
57651;SDS011;43480;53.116;6.734;2023-11-25T08:56:45;6.78;;;1.15;;
57651;SDS011;43480;53.116;6.734;2023-11-25T08:59:13;10.18;;;1.88;;
57651;SDS011;43480;53.116;6.734;2023-11-25T09:01:46;14.93;;;1.88;;
57651;SDS011;43480;53.116;6.734;2023-11-25T09:04:13;17.95;;;2.25;;
57651;SDS011;43480;53.116;6.734;2023-11-25T09:06:48;13.55;;;1.90;;
57651;SDS011;43480;53.116;6.734;2023-11-25T09:09:14;12.65;;;2.88;;
57651;SDS011;43480;53.116;6.734;2023-11-25T09:11:42;13.50;;;3.10;;
57651;SDS011;43480;53.116;6.734;2023-11-25T09:14:08;13.45;;;1.95;;
57651;SDS011;43480;53.116;6.734;2023-11-25T09:16:34;12.85;;;1.92;;
57651;SDS011;43480;53.116;6.734;2023-11-25T09:19:00;8.20;;;1.45;;
57651;SDS011;43480;53.116;6.734;2023-11-25T09:21:26;18.92;;;2.67;;
57651;SDS011;43480;53.116;6.734;2023-11-25T09:23:51;12.73;;;3.22;;
57651;SDS011;43480;53.116;6.734;2023-11-25T09:26:19;18.00;;;2.60;;
57651;SDS011;43480;53.116;6.734;2023-11-25T09:28:46;17.58;;;3.63;;
57651;SDS011;43480;53.116;6.734;2023-11-25T09:31:12;17.00;;;1.92;;
57651;SDS011;43480;53.116;6.734;2023-11-25T09:33:37;14.70;;;2.30;;
57651;SDS011;43480;53.116;6.734;2023-11-25T09:36:03;16.98;;;2.63;;
57651;SDS011;43480;53.116;6.734;2023-11-25T09:38:29;19.60;;;3.50;;
57651;SDS011;43480;53.116;6.734;2023-11-25T09:40:55;19.25;;;3.47;;
57651;SDS011;43480;53.116;6.734;2023-11-25T09:43:20;9.38;;;1.50;;
57651;SDS011;43480;53.116;6.734;2023-11-25T09:45:46;8.65;;;1.40;;
57651;SDS011;43480;53.116;6.734;2023-11-25T09:48:15;10.60;;;1.58;;
57651;SDS011;43480;53.116;6.734;2023-11-25T09:50:41;10.65;;;1.70;;
57651;SDS011;43480;53.116;6.734;2023-11-25T09:53:12;9.18;;;1.60;;
57651;SDS011;43480;53.116;6.734;2023-11-25T09:56:01;12.10;;;2.03;;
57651;SDS011;43480;53.116;6.734;2023-11-25T09:58:31;12.15;;;2.22;;
57651;SDS011;43480;53.116;6.734;2023-11-25T10:00:59;11.05;;;1.67;;
57651;SDS011;43480;53.116;6.734;2023-11-25T10:03:28;5.40;;;1.70;;
57651;SDS011;43480;53.116;6.734;2023-11-25T10:05:58;11.77;;;1.45;;
57651;SDS011;43480;53.116;6.734;2023-11-25T10:08:25;13.32;;;3.03;;
57651;SDS011;43480;53.116;6.734;2023-11-25T10:10:58;13.00;;;1.90;;
57651;SDS011;43480;53.116;6.734;2023-11-25T10:13:31;14.77;;;2.63;;
57651;SDS011;43480;53.116;6.734;2023-11-25T10:15:59;10.68;;;2.00;;
57651;SDS011;43480;53.116;6.734;2023-11-25T10:18:25;9.85;;;1.70;;
57651;SDS011;43480;53.116;6.734;2023-11-25T10:20:51;9.10;;;1.60;;
57651;SDS011;43480;53.116;6.734;2023-11-25T10:23:22;14.38;;;2.40;;
57651;SDS011;43480;53.116;6.734;2023-11-25T10:25:49;6.78;;;1.80;;
57651;SDS011;43480;53.116;6.734;2023-11-25T10:28:21;10.13;;;1.70;;
57651;SDS011;43480;53.116;6.734;2023-11-25T10:30:54;12.30;;;1.88;;
57651;SDS011;43480;53.116;6.734;2023-11-25T10:33:27;6.60;;;1.60;;
57651;SDS011;43480;53.116;6.734;2023-11-25T10:35:57;6.88;;;1.38;;
57651;SDS011;43480;53.116;6.734;2023-11-25T10:38:24;11.25;;;1.77;;
57651;SDS011;43480;53.116;6.734;2023-11-25T10:41:01;9.15;;;2.00;;
57651;SDS011;43480;53.116;6.734;2023-11-25T10:43:28;5.28;;;0.90;;
57651;SDS011;43480;53.116;6.734;2023-11-25T10:48:33;5.70;;;0.95;;
57651;SDS011;43480;53.116;6.734;2023-11-25T10:51:00;4.40;;;0.80;;
57651;SDS011;43480;53.116;6.734;2023-11-25T10:53:27;5.88;;;1.10;;
57651;SDS011;43480;53.116;6.734;2023-11-25T10:55:57;5.93;;;0.70;;
57651;SDS011;43480;53.116;6.734;2023-11-25T10:58:24;7.10;;;0.88;;
57651;SDS011;43480;53.116;6.734;2023-11-25T11:00:57;6.18;;;1.08;;
57651;SDS011;43480;53.116;6.734;2023-11-25T11:04:25;7.70;;;1.20;;
57651;SDS011;43480;53.116;6.734;2023-11-25T11:06:48;8.90;;;1.25;;
57651;SDS011;43480;53.116;6.734;2023-11-25T11:09:21;7.65;;;1.25;;
57651;SDS011;43480;53.116;6.734;2023-11-25T11:11:53;9.20;;;1.10;;
57651;SDS011;43480;53.116;6.734;2023-11-25T11:14:22;7.60;;;1.48;;
57651;SDS011;43480;53.116;6.734;2023-11-25T11:19:33;9.20;;;1.40;;
57651;SDS011;43480;53.116;6.734;2023-11-25T11:22:04;6.05;;;0.75;;
57651;SDS011;43480;53.116;6.734;2023-11-25T11:27:37;4.57;;;0.50;;
57651;SDS011;43480;53.116;6.734;2023-11-25T11:33:33;2.22;;;0.98;;
57651;SDS011;43480;53.116;6.734;2023-11-25T11:36:04;3.83;;;0.57;;
57651;SDS011;43480;53.116;6.734;2023-11-25T11:38:30;5.63;;;1.38;;
57651;SDS011;43480;53.116;6.734;2023-11-25T11:41:24;3.95;;;0.80;;
57651;SDS011;43480;53.116;6.734;2023-11-25T11:46:30;5.45;;;1.05;;
57651;SDS011;43480;53.116;6.734;2023-11-25T11:49:12;7.68;;;1.30;;
57651;SDS011;43480;53.116;6.734;2023-11-25T11:54:25;3.97;;;0.85;;
57651;SDS011;43480;53.116;6.734;2023-11-25T12:02:28;3.55;;;0.55;;
57651;SDS011;43480;53.116;6.734;2023-11-25T12:04:58;5.90;;;0.90;;
57651;SDS011;43480;53.116;6.734;2023-11-25T12:07:24;5.80;;;0.70;;
57651;SDS011;43480;53.116;6.734;2023-11-25T12:09:52;5.10;;;0.63;;
57651;SDS011;43480;53.116;6.734;2023-11-25T12:12:19;3.92;;;0.60;;
57651;SDS011;43480;53.116;6.734;2023-11-25T12:14:45;3.33;;;0.73;;
57651;SDS011;43480;53.116;6.734;2023-11-25T12:17:12;4.43;;;0.70;;
57651;SDS011;43480;53.116;6.734;2023-11-25T12:19:39;6.70;;;1.20;;
57651;SDS011;43480;53.116;6.734;2023-11-25T12:22:06;4.97;;;0.88;;
57651;SDS011;43480;53.116;6.734;2023-11-25T12:24:34;6.15;;;1.20;;
57651;SDS011;43480;53.116;6.734;2023-11-25T12:27:00;7.00;;;0.70;;
57651;SDS011;43480;53.116;6.734;2023-11-25T12:29:34;2.90;;;0.90;;
57651;SDS011;43480;53.116;6.734;2023-11-25T12:32:00;7.57;;;1.13;;
57651;SDS011;43480;53.116;6.734;2023-11-25T12:34:27;5.80;;;1.67;;
57651;SDS011;43480;53.116;6.734;2023-11-25T12:36:56;4.47;;;1.33;;
57651;SDS011;43480;53.116;6.734;2023-11-25T12:39:23;3.50;;;0.93;;
57651;SDS011;43480;53.116;6.734;2023-11-25T12:41:49;5.88;;;0.98;;
57651;SDS011;43480;53.116;6.734;2023-11-25T12:44:15;6.20;;;0.85;;
57651;SDS011;43480;53.116;6.734;2023-11-25T12:46:42;6.25;;;0.95;;
57651;SDS011;43480;53.116;6.734;2023-11-25T12:49:24;7.40;;;0.95;;
57651;SDS011;43480;53.116;6.734;2023-11-25T12:51:50;4.07;;;1.00;;
57651;SDS011;43480;53.116;6.734;2023-11-25T12:54:17;6.63;;;1.05;;
57651;SDS011;43480;53.116;6.734;2023-11-25T12:56:50;2.70;;;0.70;;
57651;SDS011;43480;53.116;6.734;2023-11-25T12:59:26;6.13;;;0.88;;
57651;SDS011;43480;53.116;6.734;2023-11-25T13:02:28;4.28;;;0.60;;
57651;SDS011;43480;53.116;6.734;2023-11-25T13:04:47;6.47;;;1.25;;
57651;SDS011;43480;53.116;6.734;2023-11-25T13:07:30;7.38;;;0.80;;
57651;SDS011;43480;53.116;6.734;2023-11-25T13:09:56;6.70;;;0.98;;
57651;SDS011;43480;53.116;6.734;2023-11-25T13:12:22;2.65;;;0.70;;
57651;SDS011;43480;53.116;6.734;2023-11-25T13:14:49;4.00;;;0.90;;
57651;SDS011;43480;53.116;6.734;2023-11-25T13:17:15;6.13;;;0.93;;
57651;SDS011;43480;53.116;6.734;2023-11-25T13:19:41;8.88;;;1.70;;
57651;SDS011;43480;53.116;6.734;2023-11-25T13:22:08;5.40;;;0.90;;
57651;SDS011;43480;53.116;6.734;2023-11-25T13:24:35;4.63;;;1.08;;
57651;SDS011;43480;53.116;6.734;2023-11-25T13:27:01;2.97;;;0.95;;
57651;SDS011;43480;53.116;6.734;2023-11-25T13:29:29;7.22;;;1.00;;
57651;SDS011;43480;53.116;6.734;2023-11-25T13:31:55;4.30;;;1.20;;
57651;SDS011;43480;53.116;6.734;2023-11-25T13:34:24;7.22;;;1.35;;
57651;SDS011;43480;53.116;6.734;2023-11-25T13:36:49;2.75;;;1.05;;
57651;SDS011;43480;53.116;6.734;2023-11-25T13:39:17;2.40;;;0.50;;
57651;SDS011;43480;53.116;6.734;2023-11-25T13:41:44;6.63;;;0.70;;
57651;SDS011;43480;53.116;6.734;2023-11-25T13:44:12;4.75;;;0.50;;
57651;SDS011;43480;53.116;6.734;2023-11-25T13:46:38;2.40;;;0.45;;
57651;SDS011;43480;53.116;6.734;2023-11-25T13:49:04;2.53;;;0.50;;
57651;SDS011;43480;53.116;6.734;2023-11-25T13:51:29;3.90;;;0.57;;
57651;SDS011;43480;53.116;6.734;2023-11-25T13:53:55;5.22;;;0.45;;
57651;SDS011;43480;53.116;6.734;2023-11-25T13:56:22;2.45;;;0.77;;
57651;SDS011;43480;53.116;6.734;2023-11-25T13:58:49;2.65;;;0.50;;
57651;SDS011;43480;53.116;6.734;2023-11-25T14:01:16;4.80;;;1.67;;
57651;SDS011;43480;53.116;6.734;2023-11-25T14:03:42;1.55;;;0.50;;
57651;SDS011;43480;53.116;6.734;2023-11-25T14:06:08;4.18;;;0.60;;
57651;SDS011;43480;53.116;6.734;2023-11-25T14:08:33;1.92;;;0.40;;
57651;SDS011;43480;53.116;6.734;2023-11-25T14:10:59;3.65;;;0.70;;
57651;SDS011;43480;53.116;6.734;2023-11-25T14:13:25;2.13;;;0.40;;
57651;SDS011;43480;53.116;6.734;2023-11-25T14:15:52;5.53;;;1.33;;
57651;SDS011;43480;53.116;6.734;2023-11-25T14:18:19;3.88;;;0.90;;
57651;SDS011;43480;53.116;6.734;2023-11-25T14:20:44;4.63;;;0.70;;
57651;SDS011;43480;53.116;6.734;2023-11-25T14:23:11;3.08;;;0.70;;
57651;SDS011;43480;53.116;6.734;2023-11-25T14:25:37;3.45;;;1.02;;
57651;SDS011;43480;53.116;6.734;2023-11-25T14:28:03;3.17;;;1.10;;
57651;SDS011;43480;53.116;6.734;2023-11-25T14:30:29;4.22;;;0.63;;
57651;SDS011;43480;53.116;6.734;2023-11-25T14:32:57;3.70;;;0.57;;
57651;SDS011;43480;53.116;6.734;2023-11-25T14:35:23;1.67;;;0.55;;
57651;SDS011;43480;53.116;6.734;2023-11-25T14:37:49;2.97;;;0.73;;
57651;SDS011;43480;53.116;6.734;2023-11-25T14:40:16;6.00;;;0.60;;
57651;SDS011;43480;53.116;6.734;2023-11-25T14:42:45;3.28;;;0.55;;
57651;SDS011;43480;53.116;6.734;2023-11-25T14:45:10;2.42;;;0.50;;
57651;SDS011;43480;53.116;6.734;2023-11-25T14:47:38;4.82;;;0.80;;
57651;SDS011;43480;53.116;6.734;2023-11-25T14:50:05;1.73;;;0.60;;
57651;SDS011;43480;53.116;6.734;2023-11-25T14:52:33;4.25;;;0.77;;
57651;SDS011;43480;53.116;6.734;2023-11-25T14:54:59;1.60;;;0.68;;
57651;SDS011;43480;53.116;6.734;2023-11-25T14:57:24;3.85;;;1.02;;
57651;SDS011;43480;53.116;6.734;2023-11-25T14:59:53;3.17;;;1.08;;
57651;SDS011;43480;53.116;6.734;2023-11-25T15:02:22;3.55;;;0.55;;
57651;SDS011;43480;53.116;6.734;2023-11-25T15:04:47;3.80;;;0.65;;